Time;durP1;ratioP1;P1;durP2;ratioP2;P2;SDS_P1;SDS_P2;PMS_P1;PMS_P2;Temp;Humidity;BMP_temperature;BMP_pressure;BME280_temperature;BME280_humidity;BME280_pressure;Samples;Min_cycle;Max_cycle;Signal;HPM_P1;HPM_P2
2023/01/02 00:02:06;;;;;;;;;;;;;;;15.70;58.22;100672.97;7254932;19;153670;-56
2023/01/02 00:04:33;;;;;;;;;;;;;;;15.68;57.90;100684.38;7259802;19;153261;-57
2023/01/02 00:06:59;;;;;;;;;;;;;;;15.68;57.88;100683.53;7253202;19;153914;-57
2023/01/02 00:09:26;;;;;;;;;;;;;;;15.68;58.14;100689.94;7254725;19;154428;-56
2023/01/02 00:11:53;;;;;;;;;;;;;;;15.68;58.15;100689.09;7253841;19;156632;-57
2023/01/02 00:14:19;;;;;;;;;;;;;;;15.68;58.05;100694.69;7255317;19;152779;-57
2023/01/02 00:16:46;;;;;;;;;;;;;;;15.68;57.92;100695.50;7256929;19;154771;-57
2023/01/02 00:19:13;;;;;;;;;;;;;;;15.68;57.65;100677.97;7255753;19;153522;-56
2023/01/02 00:21:39;;;;;;;;;;;;;;;15.67;57.99;100677.13;7252991;19;154416;-57
2023/01/02 00:24:06;;;;;;;;;;;;;;;15.68;57.98;100672.41;7255642;19;153090;-56
2023/01/02 00:26:33;;;;;;;;;;;;;;;15.68;58.19;100667.66;7261271;19;154122;-56
2023/01/02 00:29:00;;;;;;;;;;;;;;;15.70;57.78;100670.19;7256358;19;153339;-56
2023/01/02 00:31:26;;;;;;;;;;;;;;;15.70;57.76;100668.22;7253331;19;156250;-56
2023/01/02 00:33:53;;;;;;;;;;;;;;;15.74;58.13;100683.25;7253550;19;152466;-57
2023/01/02 00:36:20;;;;;;;;;;;;;;;15.77;58.01;100684.63;7251839;19;154048;-56
2023/01/02 00:38:47;;;;;;;;;;;;;;;15.82;58.17;100690.19;7250478;19;155304;-57
2023/01/02 00:41:13;;;;;;;;;;;;;;;15.87;58.52;100692.97;7254003;19;153273;-56
2023/01/02 00:43:42;;;;;;;;;;;;;;;15.93;58.39;100702.97;7253790;19;152830;-56
2023/01/02 00:46:09;;;;;;;;;;;;;;;15.96;58.61;100700.47;7250855;19;156324;-57
2023/01/02 00:48:38;;;;;;;;;;;;;;;16.01;58.51;100699.59;7261781;19;152780;-56
2023/01/02 00:51:04;;;;;;;;;;;;;;;16.02;58.78;100702.13;7251272;19;154251;-56
2023/01/02 00:53:31;;;;;;;;;;;;;;;16.07;58.86;100687.31;7255237;19;155247;-57
2023/01/02 00:55:58;;;;;;;;;;;;;;;16.11;58.71;100705.16;7254352;19;152396;-57
2023/01/02 00:58:24;;;;;;;;;;;;;;;16.16;58.61;100707.06;7252208;19;154599;-56
2023/01/02 01:00:51;;;;;;;;;;;;;;;16.19;58.38;100706.50;7250791;19;151975;-57
2023/01/02 01:03:18;;;;;;;;;;;;;;;16.22;58.59;100701.19;7254257;19;154652;-56
2023/01/02 01:05:44;;;;;;;;;;;;;;;16.25;58.33;100706.19;7249522;19;153996;-57
2023/01/02 01:08:12;;;;;;;;;;;;;;;16.29;58.15;100700.88;7248883;19;153104;-57
2023/01/02 01:10:38;;;;;;;;;;;;;;;16.31;57.97;100693.88;7257992;19;154646;-57
2023/01/02 01:13:05;;;;;;;;;;;;;;;16.35;58.11;100681.03;7252735;19;153616;-57
2023/01/02 01:15:32;;;;;;;;;;;;;;;16.37;58.10;100692.75;7253001;19;154299;-56
2023/01/02 01:17:59;;;;;;;;;;;;;;;16.40;57.91;100692.16;7251147;19;153263;-56
2023/01/02 01:20:26;;;;;;;;;;;;;;;16.43;57.91;100699.97;7252331;19;153353;-57
2023/01/02 01:22:52;;;;;;;;;;;;;;;16.46;57.37;100712.50;7253009;19;152978;-57
2023/01/02 01:25:19;;;;;;;;;;;;;;;16.48;57.30;100721.44;7247198;19;153860;-57
2023/01/02 01:27:46;;;;;;;;;;;;;;;16.50;57.37;100719.16;7253128;19;153500;-57
2023/01/02 01:30:12;;;;;;;;;;;;;;;16.52;57.54;100716.09;7252381;19;152812;-57
2023/01/02 01:32:44;;;;;;;;;;;;;;;16.53;57.25;100718.63;7260090;19;153710;-57
2023/01/02 01:35:11;;;;;;;;;;;;;;;16.55;57.27;100721.09;7249950;19;153405;-57
2023/01/02 01:37:38;;;;;;;;;;;;;;;16.57;56.73;100727.22;7249385;19;153655;-57
2023/01/02 01:40:06;;;;;;;;;;;;;;;16.58;56.76;100721.38;7252860;19;153322;-57
2023/01/02 01:42:33;;;;;;;;;;;;;;;16.59;56.86;100723.06;7252065;19;153998;-57
2023/01/02 01:45:00;;;;;;;;;;;;;;;16.60;56.51;100723.91;7250030;19;152475;-56
2023/01/02 01:47:35;;;;;;;;;;;;;;;16.60;56.57;100724.72;7250190;19;153932;-56
2023/01/02 01:50:06;;;;;;;;;;;;;;;16.62;56.48;100736.44;7249475;19;155021;-56
2023/01/02 01:52:35;;;;;;;;;;;;;;;16.64;56.55;100738.94;7256679;19;153118;-56
2023/01/02 01:55:06;;;;;;;;;;;;;;;16.65;56.26;100744.22;7250883;19;153070;-57
2023/01/02 01:57:36;;;;;;;;;;;;;;;16.66;56.32;100750.66;7248331;19;154359;-57
2023/01/02 02:00:03;;;;;;;;;;;;;;;16.67;55.96;100769.06;7251682;19;153832;-57
2023/01/02 02:02:30;;;;;;;;;;;;;;;16.66;56.24;100762.63;7251221;19;154241;-56
2023/01/02 02:04:59;;;;;;;;;;;;;;;16.68;55.80;100765.13;7250294;19;154688;-56
2023/01/02 02:07:27;;;;;;;;;;;;;;;16.68;55.85;100762.34;7245911;19;153360;-57
2023/01/02 02:09:58;;;;;;;;;;;;;;;16.67;56.12;100767.06;7251548;19;154365;-57
2023/01/02 02:12:25;;;;;;;;;;;;;;;16.67;55.83;100778.22;7251024;19;153952;-56
2023/01/02 02:14:53;;;;;;;;;;;;;;;16.66;56.21;100773.78;7258943;19;154014;-56
2023/01/02 02:17:30;;;;;;;;;;;;;;;16.66;55.97;100773.78;7247781;19;154057;-57
2023/01/02 02:19:57;;;;;;;;;;;;;;;16.67;55.86;100785.78;7249769;19;154260;-57
2023/01/02 02:22:34;;;;;;;;;;;;;;;16.66;55.99;100790.53;7250383;19;153827;-56
2023/01/02 02:25:01;;;;;;;;;;;;;;;16.66;56.21;100796.13;7248486;19;154049;-57
2023/01/02 02:27:38;;;;;;;;;;;;;;;16.66;55.83;100793.31;7252743;19;153119;-57
2023/01/02 02:30:15;;;;;;;;;;;;;;;16.66;55.71;100789.69;7250176;19;153331;-56
2023/01/02 02:32:51;;;;;;;;;;;;;;;16.65;55.97;100791.66;7250497;19;153959;-56
2023/01/02 02:35:25;;;;;;;;;;;;;;;16.65;56.20;100799.19;7249328;19;152924;-56
2023/01/02 02:38:02;;;;;;;;;;;;;;;16.65;55.85;100811.16;7255202;19;153637;-56
2023/01/02 02:40:38;;;;;;;;;;;;;;;16.65;56.08;100807.53;7250312;19;155284;-57
2023/01/02 02:43:06;;;;;;;;;;;;;;;16.64;56.08;100808.66;7251145;19;154358;-57
2023/01/02 02:45:36;;;;;;;;;;;;;;;16.63;56.06;100812.56;7245890;19;155972;-57
2023/01/02 02:48:09;;;;;;;;;;;;;;;16.63;56.15;100809.78;7248695;19;153491;-57
2023/01/02 02:50:46;;;;;;;;;;;;;;;16.64;55.99;100808.66;7248940;19;154001;-56
2023/01/02 02:53:18;;;;;;;;;;;;;;;16.63;55.90;100806.97;7248179;19;154649;-56
2023/01/02 02:55:49;;;;;;;;;;;;;;;16.63;56.13;100810.59;7250024;19;154059;-57
2023/01/02 02:58:17;;;;;;;;;;;;;;;16.63;55.91;100806.97;7248370;19;153409;-57
2023/01/02 03:00:44;;;;;;;;;;;;;;;16.62;55.92;100816.50;7257547;19;154194;-57
2023/01/02 03:03:13;;;;;;;;;;;;;;;16.62;55.91;100813.72;7251173;19;154585;-57
2023/01/02 03:05:42;;;;;;;;;;;;;;;16.61;55.75;100823.19;7247270;19;155448;-57
2023/01/02 03:08:09;;;;;;;;;;;;;;;16.60;55.83;100815.94;7247198;19;153709;-57
2023/01/02 03:10:36;;;;;;;;;;;;;;;16.59;56.02;100817.88;7247185;19;154068;-56
2023/01/02 03:13:13;;;;;;;;;;;;;;;16.58;56.26;100820.97;7249212;19;152862;-57
2023/01/02 03:15:44;;;;;;;;;;;;;;;16.57;56.14;100824.84;7250532;19;154048;-57
2023/01/02 03:18:14;;;;;;;;;;;;;;;16.56;56.14;100831.53;7254521;19;154284;-57
2023/01/02 03:20:48;;;;;;;;;;;;;;;16.55;55.80;100825.13;7256500;19;154198;-58
2023/01/02 03:23:19;;;;;;;;;;;;;;;16.54;55.74;100819.81;7262097;19;153687;-58
2023/01/02 03:25:46;;;;;;;;;;;;;;;16.53;56.06;100823.75;7253882;19;154073;-59
2023/01/02 03:28:15;;;;;;;;;;;;;;;16.53;56.20;100820.97;7255024;19;153156;-59
2023/01/02 03:30:44;;;;;;;;;;;;;;;16.51;55.89;100824.03;7255982;19;154449;-58
2023/01/02 03:33:15;;;;;;;;;;;;;;;16.50;55.81;100830.72;7254946;19;154378;-59
2023/01/02 03:35:48;;;;;;;;;;;;;;;16.50;55.73;100824.28;7256506;19;153568;-58
2023/01/02 03:38:19;;;;;;;;;;;;;;;16.49;55.81;100819.88;7254812;19;153556;-59
2023/01/02 03:40:49;;;;;;;;;;;;;;;16.48;55.81;100832.13;7252610;19;154566;-59
2023/01/02 03:43:19;;;;;;;;;;;;;;;16.45;56.06;100823.19;7260571;19;152058;-59
2023/01/02 03:45:49;;;;;;;;;;;;;;;16.45;55.64;100822.34;7254312;19;154900;-58
2023/01/02 03:48:26;;;;;;;;;;;;;;;16.45;55.94;100827.94;7253780;19;154326;-59
2023/01/02 03:50:54;;;;;;;;;;;;;;;16.44;55.98;100823.50;7252335;19;153403;-59
2023/01/02 03:53:22;;;;;;;;;;;;;;;16.43;56.03;100824.63;7252879;19;153332;-58
2023/01/02 03:56:09;;;;;;;;;;;;;;;16.42;55.79;100832.13;7255848;19;153914;-59
2023/01/02 03:58:42;;;;;;;;;;;;;;;16.41;55.85;100841.63;7254303;19;152838;-58
2023/01/02 04:01:14;;;;;;;;;;;;;;;16.41;56.08;100840.78;7254212;19;153774;-58
2023/01/02 04:03:51;;;;;;;;;;;;;;;16.39;55.87;100838.28;7256036;19;152203;-58
2023/01/02 04:06:21;;;;;;;;;;;;;;;16.40;55.78;100841.88;7258662;19;154814;-58
2023/01/02 04:08:56;;;;;;;;;;;;;;;16.38;55.89;100833.00;7254783;19;153851;-58
2023/01/02 04:11:25;;;;;;;;;;;;;;;16.37;55.98;100848.88;7253029;19;154920;-58
2023/01/02 04:13:55;;;;;;;;;;;;;;;16.37;55.96;100870.34;7253734;19;153817;-58
2023/01/02 04:16:26;;;;;;;;;;;;;;;16.37;56.15;100845.25;7253997;19;154149;-58
2023/01/02 04:18:57;;;;;;;;;;;;;;;16.36;55.89;100840.78;7251885;19;154081;-58
2023/01/02 04:21:25;;;;;;;;;;;;;;;16.34;56.12;100849.47;7249267;19;155911;-58
2023/01/02 04:23:57;;;;;;;;;;;;;;;16.33;56.17;100841.38;7255969;19;154645;-58
2023/01/02 04:26:26;;;;;;;;;;;;;;;16.32;56.03;100846.09;7252740;19;154054;-58
2023/01/02 04:28:54;;;;;;;;;;;;;;;16.31;55.72;100861.16;7257279;19;155841;-58
2023/01/02 04:31:31;;;;;;;;;;;;;;;16.30;56.10;100862.28;7252610;19;153494;-58
2023/01/02 04:33:59;;;;;;;;;;;;;;;16.31;55.76;100866.72;7252652;19;154710;-58
2023/01/02 04:36:26;;;;;;;;;;;;;;;16.30;55.98;100855.88;7249637;19;153259;-58
2023/01/02 04:38:53;;;;;;;;;;;;;;;16.29;56.05;100854.22;7254316;19;154884;-58
2023/01/02 04:43:58;;;;;;;;;;;;;;;16.26;55.94;100852.81;7253030;19;153796;-58
2023/01/02 04:46:25;;;;;;;;;;;;;;;16.26;56.08;100855.59;7252735;19;152628;-58
2023/01/02 04:48:53;;;;;;;;;;;;;;;16.25;55.95;100851.16;7251831;19;153840;-58
2023/01/02 04:51:20;;;;;;;;;;;;;;;16.24;55.84;100843.91;7259059;19;153168;-58
2023/01/02 04:53:47;;;;;;;;;;;;;;;16.24;56.18;100845.84;7244393;19;154397;-58
2023/01/02 04:56:14;;;;;;;;;;;;;;;16.24;56.21;100854.22;7253315;19;154361;-58
2023/01/02 04:58:43;;;;;;;;;;;;;;;16.22;56.11;100857.28;7251781;19;153329;-58
2023/01/02 05:01:11;;;;;;;;;;;;;;;16.22;55.90;100867.59;7254006;19;154451;-58
2023/01/02 05:03:40;;;;;;;;;;;;;;;16.21;55.97;100871.50;7254427;19;153193;-58
2023/01/02 05:06:07;;;;;;;;;;;;;;;16.20;56.18;100867.03;7248206;19;154314;-58
2023/01/02 05:08:35;;;;;;;;;;;;;;;16.20;56.05;100883.78;7248833;19;155728;-58
2023/01/02 05:11:04;;;;;;;;;;;;;;;16.17;55.94;100901.88;7251182;19;153660;-58
2023/01/02 05:13:31;;;;;;;;;;;;;;;16.17;55.96;100907.44;7258720;19;153146;-58
2023/01/02 05:15:59;;;;;;;;;;;;;;;16.18;56.19;100908.28;7251358;19;154134;-58
2023/01/02 05:18:28;;;;;;;;;;;;;;;16.16;56.05;100914.16;7250657;19;153385;-58
2023/01/02 05:21:04;;;;;;;;;;;;;;;16.16;56.23;100919.72;7249997;19;152797;-58
2023/01/02 05:26:10;;;;;;;;;;;;;;;16.14;56.29;100905.22;7253470;19;153907;-58
2023/01/02 05:28:37;;;;;;;;;;;;;;;16.15;55.98;100906.06;7251770;19;154927;-58
2023/01/02 05:31:04;;;;;;;;;;;;;;;16.12;56.31;100904.69;7253182;19;154401;-58
2023/01/02 05:33:31;;;;;;;;;;;;;;;16.12;56.12;100909.44;7252557;19;155441;-58
2023/01/02 05:35:58;;;;;;;;;;;;;;;16.12;56.08;100921.41;7255024;19;154026;-58
2023/01/02 05:38:25;;;;;;;;;;;;;;;16.11;56.39;100922.53;7250894;19;153923;-58
2023/01/02 05:41:02;;;;;;;;;;;;;;;16.10;56.20;100918.06;7249691;19;154667;-58
2023/01/02 05:43:31;;;;;;;;;;;;;;;16.10;56.29;100911.66;7253993;19;154043;-58
2023/01/02 05:45:58;;;;;;;;;;;;;;;16.10;56.41;100925.56;7250817;19;152715;-58
2023/01/02 05:48:26;;;;;;;;;;;;;;;16.10;56.09;100928.38;7252177;19;154301;-57
2023/01/02 05:50:53;;;;;;;;;;;;;;;16.09;56.43;100937.84;7250144;19;153122;-57
2023/01/02 05:53:20;;;;;;;;;;;;;;;16.07;56.37;100929.78;7250103;19;154740;-57
2023/01/02 05:55:47;;;;;;;;;;;;;;;16.07;56.07;100940.91;7259370;19;153536;-58
2023/01/02 05:58:14;;;;;;;;;;;;;;;16.06;56.08;100943.97;7250875;19;152684;-58
2023/01/02 06:00:41;;;;;;;;;;;;;;;16.05;56.14;100961.81;7251411;19;155241;-57
2023/01/02 06:03:08;;;;;;;;;;;;;;;16.05;56.29;100971.00;7253067;19;154014;-57
2023/01/02 06:05:35;;;;;;;;;;;;;;;16.05;56.54;100973.78;7250290;19;155260;-57
2023/01/02 06:08:02;;;;;;;;;;;;;;;16.04;56.40;100986.03;7247254;19;154200;-58
2023/01/02 06:10:28;;;;;;;;;;;;;;;16.04;56.23;100988.81;7250241;19;153694;-58
2023/01/02 06:12:55;;;;;;;;;;;;;;;16.03;56.39;100993.56;7250972;19;152645;-57
2023/01/02 06:15:22;;;;;;;;;;;;;;;16.02;56.25;100994.69;7249156;19;153744;-57
2023/01/02 06:17:49;;;;;;;;;;;;;;;16.03;56.22;101001.13;7258439;19;153336;-60
2023/01/02 06:20:16;;;;;;;;;;;;;;;16.02;56.47;101014.22;7250029;19;154602;-58
2023/01/02 06:22:43;;;;;;;;;;;;;;;16.01;56.08;101014.47;7250847;19;153321;-58
2023/01/02 06:25:10;;;;;;;;;;;;;;;16.00;56.57;101027.56;7248788;19;155292;-58
2023/01/02 06:27:37;;;;;;;;;;;;;;;16.00;56.25;101022.00;7247786;19;155475;-58
2023/01/02 06:30:04;;;;;;;;;;;;;;;15.99;56.23;101034.25;7251616;19;152946;-58
2023/01/02 06:32:31;;;;;;;;;;;;;;;15.99;56.26;101036.19;7251437;19;155720;-58
2023/01/02 06:34:58;;;;;;;;;;;;;;;15.99;56.23;101027.81;7249025;19;154770;-57
2023/01/02 06:37:25;;;;;;;;;;;;;;;15.98;56.21;101040.94;7248652;19;153021;-58
2023/01/02 06:39:52;;;;;;;;;;;;;;;15.97;56.47;101044.00;7259473;19;153354;-57
2023/01/02 06:42:18;;;;;;;;;;;;;;;15.96;56.54;101045.09;7251079;19;154506;-58
2023/01/02 06:44:45;;;;;;;;;;;;;;;15.94;56.35;101053.72;7250770;19;154427;-58
2023/01/02 06:47:12;;;;;;;;;;;;;;;15.95;56.26;101060.16;7247707;19;154166;-57
2023/01/02 06:49:39;;;;;;;;;;;;;;;15.94;56.27;101048.16;7251881;19;153807;-58
2023/01/02 06:52:06;;;;;;;;;;;;;;;15.93;56.52;101049.28;7248466;19;154325;-58
2023/01/02 06:54:33;;;;;;;;;;;;;;;15.93;56.45;101045.66;7249303;19;153582;-57
2023/01/02 06:57:00;;;;;;;;;;;;;;;15.92;56.59;101050.41;7249652;19;154937;-57
2023/01/02 06:59:26;;;;;;;;;;;;;;;15.92;56.41;101055.97;7250933;19;153954;-58
2023/01/02 07:01:53;;;;;;;;;;;;;;;15.91;56.49;101050.66;7254468;19;154496;-57
2023/01/02 07:04:20;;;;;;;;;;;;;;;15.91;56.48;101053.44;7250445;19;155620;-57
2023/01/02 07:06:47;;;;;;;;;;;;;;;15.90;56.14;101069.31;7246101;19;154192;-57
2023/01/02 07:09:14;;;;;;;;;;;;;;;15.91;56.60;101070.16;7250967;19;153317;-58
2023/01/02 07:11:41;;;;;;;;;;;;;;;15.90;56.64;101074.91;7246551;19;155069;-57
2023/01/02 07:14:08;;;;;;;;;;;;;;;15.88;56.35;101074.34;7247944;19;153620;-58
2023/01/02 07:16:35;;;;;;;;;;;;;;;15.88;56.64;101079.94;7249417;19;153137;-58
2023/01/02 07:19:02;;;;;;;;;;;;;;;15.87;56.35;101083.81;7251122;19;153841;-58
2023/01/02 07:21:29;;;;;;;;;;;;;;;15.87;56.21;101088.53;7245528;19;154746;-58
2023/01/02 07:23:56;;;;;;;;;;;;;;;15.87;56.42;101096.91;7256201;19;154416;-58
2023/01/02 07:26:23;;;;;;;;;;;;;;;15.85;56.54;101107.50;7247544;19;154793;-57
2023/01/02 07:28:49;;;;;;;;;;;;;;;15.85;56.33;101110.28;7247999;19;154209;-57
2023/01/02 07:31:17;;;;;;;;;;;;;;;15.84;56.58;101112.22;7246170;19;152891;-58
2023/01/02 07:33:45;;;;;;;;;;;;;;;15.83;56.25;101116.13;7246155;19;153781;-58
2023/01/02 07:36:13;;;;;;;;;;;;;;;15.84;56.54;101120.59;7243164;19;153727;-58
2023/01/02 07:38:40;;;;;;;;;;;;;;;15.84;56.50;101128.09;7246548;19;155328;-58
2023/01/02 07:41:12;;;;;;;;;;;;;;;15.82;56.52;101122.78;7247057;19;155943;-58
2023/01/02 07:43:38;;;;;;;;;;;;;;;15.81;56.50;101137.81;7248817;19;153230;-58
2023/01/02 07:46:05;;;;;;;;;;;;;;;15.81;56.49;101137.00;7255891;19;154553;-58
2023/01/02 07:48:32;;;;;;;;;;;;;;;15.80;56.44;101136.19;7247466;19;154710;-58
2023/01/02 07:51:01;;;;;;;;;;;;;;;15.80;56.36;101146.47;7246487;19;153506;-58
2023/01/02 07:53:28;;;;;;;;;;;;;;;15.78;56.72;101151.47;7244650;19;156279;-58
2023/01/02 07:55:56;;;;;;;;;;;;;;;15.78;56.44;101152.31;7241539;19;152694;-58
2023/01/02 07:58:23;;;;;;;;;;;;;;;15.77;56.52;101166.50;7246770;19;156082;-58
2023/01/02 08:00:50;;;;;;;;;;;;;;;15.77;56.73;101172.06;7246464;19;154276;-58
2023/01/02 08:03:17;;;;;;;;;;;;;;;15.76;56.30;101174.00;7249409;19;153170;-58
2023/01/02 08:05:44;;;;;;;;;;;;;;;15.76;56.72;101176.00;7260611;19;155504;-58
2023/01/02 08:08:11;;;;;;;;;;;;;;;15.76;56.44;101189.91;7253229;19;153178;-58
2023/01/02 08:10:38;;;;;;;;;;;;;;;15.76;56.34;101184.34;7253680;19;154216;-58
2023/01/02 08:13:05;;;;;;;;;;;;;;;15.76;56.32;101181.56;7253446;19;154977;-58
2023/01/02 08:15:32;;;;;;;;;;;;;;;15.76;56.48;101192.69;7255868;19;152829;-58
2023/01/02 08:17:59;;;;;;;;;;;;;;;15.75;56.51;101182.66;7252550;19;152431;-58
2023/01/02 08:20:26;;;;;;;;;;;;;;;15.74;56.16;101190.19;7252777;19;154713;-58
2023/01/02 08:22:55;;;;;;;;;;;;;;;15.72;56.55;101195.16;7254987;19;153570;-58
2023/01/02 08:25:22;;;;;;;;;;;;;;;15.72;56.51;101192.38;7254562;19;153729;-57
2023/01/02 08:27:49;;;;;;;;;;;;;;;15.73;56.58;101201.56;7260185;19;154152;-57
2023/01/02 08:30:16;;;;;;;;;;;;;;;15.71;56.24;101212.16;7255450;19;152748;-57
2023/01/02 08:32:43;;;;;;;;;;;;;;;15.71;56.65;101223.31;7255129;19;154772;-57
2023/01/02 08:35:10;;;;;;;;;;;;;;;15.71;56.27;101234.44;7253709;19;152177;-57
2023/01/02 08:37:37;;;;;;;;;;;;;;;15.69;56.61;101234.72;7255154;19;153936;-57
2023/01/02 08:40:04;;;;;;;;;;;;;;;15.69;56.46;101245.00;7250316;19;154386;-57
2023/01/02 08:42:31;;;;;;;;;;;;;;;15.71;56.57;101245.59;7256765;19;153432;-57
2023/01/02 08:44:58;;;;;;;;;;;;;;;15.70;56.45;101250.31;7254521;19;153117;-57
2023/01/02 08:47:25;;;;;;;;;;;;;;;15.71;56.29;101251.16;7250236;19;155481;-57
2023/01/02 08:49:52;;;;;;;;;;;;;;;15.71;56.25;101257.56;7259881;19;153200;-57
2023/01/02 08:52:19;;;;;;;;;;;;;;;15.74;56.63;101268.16;7251327;19;153367;-57
2023/01/02 08:54:46;;;;;;;;;;;;;;;15.76;56.70;101270.69;7253459;19;153254;-57
2023/01/02 08:57:13;;;;;;;;;;;;;;;15.80;57.06;101281.03;7253314;19;154475;-57
2023/01/02 08:59:40;;;;;;;;;;;;;;;15.85;57.11;101280.22;7249801;19;153455;-57
2023/01/02 09:02:11;;;;;;;;;;;;;;;15.88;57.16;101290.81;7252806;19;152892;-57
2023/01/02 09:04:38;;;;;;;;;;;;;;;15.93;57.17;101296.44;7255631;19;153782;-57
2023/01/02 09:07:05;;;;;;;;;;;;;;;15.96;57.05;101298.66;7251005;19;154763;-57
2023/01/02 09:09:32;;;;;;;;;;;;;;;16.00;57.51;101295.09;7253127;19;153569;-57
2023/01/02 09:11:59;;;;;;;;;;;;;;;16.03;57.43;101297.31;7260016;19;153961;-57
2023/01/02 09:14:26;;;;;;;;;;;;;;;16.07;57.59;101307.94;7255379;19;152336;-57
2023/01/02 09:16:53;;;;;;;;;;;;;;;16.11;57.50;101315.50;7249541;19;152851;-57
2023/01/02 09:19:20;;;;;;;;;;;;;;;16.15;57.10;101316.63;7253559;19;156119;-57
2023/01/02 09:21:47;;;;;;;;;;;;;;;16.18;57.26;101318.03;7251467;19;154286;-57
2023/01/02 09:24:14;;;;;;;;;;;;;;;16.23;57.01;101329.22;7257828;19;153855;-57
2023/01/02 09:26:41;;;;;;;;;;;;;;;16.24;57.31;101328.94;7254091;19;153268;-57
2023/01/02 09:29:09;;;;;;;;;;;;;;;16.28;57.15;101343.19;7250493;19;152975;-58
2023/01/02 09:31:36;;;;;;;;;;;;;;;16.31;56.88;101351.00;7253067;19;153058;-57
2023/01/02 09:34:03;;;;;;;;;;;;;;;16.33;56.97;101366.38;7259615;19;153543;-57
2023/01/02 09:36:31;;;;;;;;;;;;;;;16.36;57.04;101364.97;7223416;19;154677;-57
2023/01/02 09:38:59;;;;;;;;;;;;;;;16.39;56.63;101373.66;7242157;19;154623;-57
2023/01/02 09:41:30;;;;;;;;;;;;;;;16.42;56.42;101364.75;7253840;19;154410;-57
2023/01/02 09:44:00;;;;;;;;;;;;;;;16.46;56.51;101373.41;7252984;19;153946;-57
2023/01/02 09:46:31;;;;;;;;;;;;;;;16.49;56.33;101381.22;7250639;19;154141;-57
2023/01/02 09:48:59;;;;;;;;;;;;;;;16.50;56.31;101388.47;7252935;19;153737;-57
2023/01/02 09:51:26;;;;;;;;;;;;;;;16.53;55.99;101387.97;7245999;19;153337;-57
2023/01/02 09:53:53;;;;;;;;;;;;;;;16.55;55.92;101391.28;7250684;19;153551;-57
2023/01/02 09:56:23;;;;;;;;;;;;;;;16.57;55.70;101393.81;7259826;19;152777;-57
2023/01/02 09:59:05;;;;;;;;;;;;;;;16.59;55.54;101406.41;7252566;19;153099;-58
2023/01/02 10:01:40;;;;;;;;;;;;;;;16.61;55.51;101395.00;7252408;19;154474;-57
2023/01/02 10:04:21;;;;;;;;;;;;;;;16.62;55.42;101399.47;7253392;19;153728;-57
2023/01/02 10:06:58;;;;;;;;;;;;;;;16.63;55.54;101403.91;7248189;19;154283;-57
2023/01/02 10:09:26;;;;;;;;;;;;;;;16.64;55.27;101411.19;7250409;19;153128;-57
2023/01/02 10:12:03;;;;;;;;;;;;;;;16.64;55.55;101420.38;7251862;19;154790;-57
2023/01/02 10:14:39;;;;;;;;;;;;;;;16.66;55.57;101422.91;7249883;19;153371;-57
2023/01/02 10:17:11;;;;;;;;;;;;;;;16.68;55.42;101424.31;7261207;19;153066;-56
2023/01/02 10:19:40;;;;;;;;;;;;;;;16.69;54.93;101420.41;7250583;19;155642;-57
2023/01/02 10:22:12;;;;;;;;;;;;;;;16.70;55.31;101432.41;7249075;19;153745;-56
2023/01/02 10:24:42;;;;;;;;;;;;;;;16.70;55.13;101432.41;7250897;19;152251;-56
2023/01/02 10:27:11;;;;;;;;;;;;;;;16.73;55.18;101448.63;7249322;19;154119;-57
2023/01/02 10:29:42;;;;;;;;;;;;;;;16.74;54.88;101441.94;7246354;19;152046;-57
2023/01/02 10:32:14;;;;;;;;;;;;;;;16.76;55.00;101448.91;7248940;19;155449;-56
2023/01/02 10:34:47;;;;;;;;;;;;;;;16.76;54.68;101448.91;7247987;19;155192;-57
2023/01/02 10:37:15;;;;;;;;;;;;;;;16.77;54.57;101450.59;7246112;19;153946;-56
2023/01/02 10:39:43;;;;;;;;;;;;;;;16.76;54.43;101443.31;7255371;19;156309;-57
2023/01/02 10:42:12;;;;;;;;;;;;;;;16.78;54.67;101457.00;7251886;19;153213;-57
2023/01/02 10:44:40;;;;;;;;;;;;;;;16.76;54.76;101450.88;7253221;19;153409;-56
2023/01/02 10:47:11;;;;;;;;;;;;;;;16.76;54.44;101453.66;7249701;19;153522;-57
2023/01/02 10:49:40;;;;;;;;;;;;;;;16.75;54.63;101455.63;7245485;19;153281;-56
2023/01/02 10:52:12;;;;;;;;;;;;;;;16.75;54.43;101457.56;7246014;19;153368;-57
2023/01/02 10:54:49;;;;;;;;;;;;;;;16.74;54.56;101459.50;7246249;19;153529;-57
2023/01/02 10:57:32;;;;;;;;;;;;;;;16.74;54.52;101464.25;7251433;19;154113;-57
2023/01/02 11:00:00;;;;;;;;;;;;;;;16.74;54.78;101461.47;7248758;19;154480;-57
2023/01/02 11:02:28;;;;;;;;;;;;;;;16.73;54.37;101471.78;7256515;19;153183;-56
2023/01/02 11:04:58;;;;;;;;;;;;;;;16.73;54.63;101474.56;7248215;19;154077;-57
2023/01/02 11:07:25;;;;;;;;;;;;;;;16.73;54.62;101479.31;7245080;19;154977;-56
2023/01/02 11:09:54;;;;;;;;;;;;;;;16.73;54.75;101482.09;7244975;19;155421;-56
2023/01/02 11:12:22;;;;;;;;;;;;;;;16.73;54.73;101482.94;7250159;19;154755;-57
2023/01/02 11:15:08;;;;;;;;;;;;;;;16.73;54.58;101493.25;7246345;19;156439;-57
2023/01/02 11:17:39;;;;;;;;;;;;;;;16.74;54.54;101492.16;7251563;19;152322;-57
2023/01/02 11:20:19;;;;;;;;;;;;;;;16.73;54.50;101499.69;7248667;19;153774;-57
2023/01/02 11:22:46;;;;;;;;;;;;;;;16.73;54.41;101502.47;7248310;19;154505;-57
2023/01/02 11:25:20;;;;;;;;;;;;;;;16.72;54.67;101497.16;7254588;19;153772;-57
2023/01/02 11:27:47;;;;;;;;;;;;;;;16.71;54.46;101499.13;7248350;19;154442;-56
2023/01/02 11:30:24;;;;;;;;;;;;;;;16.73;54.47;101493.25;7244435;19;152017;-57
2023/01/02 11:33:00;;;;;;;;;;;;;;;16.72;54.58;101491.56;7249330;19;152851;-57
2023/01/02 11:35:31;;;;;;;;;;;;;;;16.72;54.25;101502.72;7246794;19;154065;-57
2023/01/02 11:38:00;;;;;;;;;;;;;;;16.73;54.33;101498.84;7248164;19;154557;-58
2023/01/02 11:40:28;;;;;;;;;;;;;;;16.72;54.14;101505.50;7253768;19;153838;-58
2023/01/02 11:45:36;;;;;;;;;;;;;;;16.71;54.11;101501.06;7254269;19;153401;-58
2023/01/02 11:48:04;;;;;;;;;;;;;;;16.70;54.32;101511.38;7263837;19;154287;-57
2023/01/02 11:50:34;;;;;;;;;;;;;;;16.70;54.14;101516.13;7250823;19;153998;-57
2023/01/02 11:53:02;;;;;;;;;;;;;;;16.69;54.42;101515.28;7253232;19;153047;-57
2023/01/02 11:55:38;;;;;;;;;;;;;;;16.68;54.10;101513.59;7251921;19;153452;-57
2023/01/02 11:58:07;;;;;;;;;;;;;;;16.68;54.23;101523.91;7257605;19;153958;-57
2023/01/02 12:00:35;;;;;;;;;;;;;;;16.66;54.02;101529.78;7252813;19;152503;-57
2023/01/02 12:03:05;;;;;;;;;;;;;;;16.64;54.25;101531.13;7255540;19;155641;-57
2023/01/02 12:05:42;;;;;;;;;;;;;;;16.64;54.04;101533.91;7251227;19;153271;-57
2023/01/02 12:08:18;;;;;;;;;;;;;;;16.63;54.05;101535.03;7254920;19;153362;-57
2023/01/02 12:10:52;;;;;;;;;;;;;;;16.61;54.22;101540.91;7259565;19;153820;-57
2023/01/02 12:13:30;;;;;;;;;;;;;;;16.61;54.15;101545.63;7255040;19;153561;-57
2023/01/02 12:16:04;;;;;;;;;;;;;;;16.61;53.97;101551.22;7254394;19;154146;-57
2023/01/02 12:18:40;;;;;;;;;;;;;;;16.60;54.00;101555.09;7255543;19;152896;-57
2023/01/02 12:21:10;;;;;;;;;;;;;;;16.59;54.13;101562.63;7251199;19;153980;-57
2023/01/02 12:23:38;;;;;;;;;;;;;;;16.60;54.05;101563.47;7253484;19;153748;-57
2023/01/02 12:26:06;;;;;;;;;;;;;;;16.58;54.08;101563.72;7253529;19;153838;-57
2023/01/02 12:28:45;;;;;;;;;;;;;;;16.58;54.00;101571.28;7254030;19;152569;-57
2023/01/02 12:31:15;;;;;;;;;;;;;;;16.57;54.17;101570.41;7262547;19;153466;-57
2023/01/02 12:33:52;;;;;;;;;;;;;;;16.56;53.66;101573.44;7255476;19;153906;-57
2023/01/02 12:36:19;;;;;;;;;;;;;;;16.55;53.77;101583.75;7249749;19;154493;-57
2023/01/02 12:38:47;;;;;;;;;;;;;;;16.54;53.70;101573.69;7251415;19;151928;-57
2023/01/02 12:41:24;;;;;;;;;;;;;;;16.54;53.75;101584.88;7254117;19;152967;-57
2023/01/02 12:43:54;;;;;;;;;;;;;;;16.52;53.51;101587.09;7254739;19;153400;-57
2023/01/02 12:46:32;;;;;;;;;;;;;;;16.53;53.78;101593.50;7255051;19;154663;-57